sensor_id;sensor_type;location;lat;lon;timestamp;P1;durP1;ratioP1;P2;durP2;ratioP2
75912;SDS011;64592;52.168;21.040;2023-04-30T00:02:39;21.75;;;13.35;;
75912;SDS011;64592;52.168;21.040;2023-04-30T00:07:42;20.58;;;13.02;;
75912;SDS011;64592;52.168;21.040;2023-04-30T00:12:43;17.80;;;12.15;;
75912;SDS011;64592;52.168;21.040;2023-04-30T00:17:45;18.70;;;12.65;;
75912;SDS011;64592;52.168;21.040;2023-04-30T00:22:48;20.00;;;13.00;;
75912;SDS011;64592;52.168;21.040;2023-04-30T00:27:50;18.67;;;12.82;;
75912;SDS011;64592;52.168;21.040;2023-04-30T00:32:51;20.30;;;11.90;;
75912;SDS011;64592;52.168;21.040;2023-04-30T00:37:54;18.92;;;13.38;;
75912;SDS011;64592;52.168;21.040;2023-04-30T00:42:56;18.13;;;12.30;;
75912;SDS011;64592;52.168;21.040;2023-04-30T00:47:58;24.52;;;15.80;;
75912;SDS011;64592;52.168;21.040;2023-04-30T00:53:01;19.63;;;13.15;;
75912;SDS011;64592;52.168;21.040;2023-04-30T00:58:03;22.92;;;13.88;;
75912;SDS011;64592;52.168;21.040;2023-04-30T01:03:06;22.10;;;14.20;;
75912;SDS011;64592;52.168;21.040;2023-04-30T01:08:09;22.52;;;14.05;;
75912;SDS011;64592;52.168;21.040;2023-04-30T01:13:12;22.30;;;15.02;;
75912;SDS011;64592;52.168;21.040;2023-04-30T01:18:21;18.20;;;14.02;;
75912;SDS011;64592;52.168;21.040;2023-04-30T01:23:31;21.00;;;14.15;;
75912;SDS011;64592;52.168;21.040;2023-04-30T01:28:44;22.42;;;14.57;;
75912;SDS011;64592;52.168;21.040;2023-04-30T01:33:47;20.23;;;13.27;;
75912;SDS011;64592;52.168;21.040;2023-04-30T01:38:53;21.38;;;14.90;;
75912;SDS011;64592;52.168;21.040;2023-04-30T01:44:08;21.95;;;14.55;;
75912;SDS011;64592;52.168;21.040;2023-04-30T01:49:18;21.27;;;13.88;;
75912;SDS011;64592;52.168;21.040;2023-04-30T01:54:29;23.33;;;14.82;;
75912;SDS011;64592;52.168;21.040;2023-04-30T01:59:37;22.52;;;13.73;;
75912;SDS011;64592;52.168;21.040;2023-04-30T02:04:41;22.17;;;13.95;;
75912;SDS011;64592;52.168;21.040;2023-04-30T02:09:42;17.73;;;13.05;;
75912;SDS011;64592;52.168;21.040;2023-04-30T02:14:46;19.77;;;12.48;;
75912;SDS011;64592;52.168;21.040;2023-04-30T02:19:47;18.17;;;13.02;;
75912;SDS011;64592;52.168;21.040;2023-04-30T02:24:49;21.15;;;12.25;;
75912;SDS011;64592;52.168;21.040;2023-04-30T02:29:54;18.30;;;11.88;;
75912;SDS011;64592;52.168;21.040;2023-04-30T02:34:55;19.23;;;12.43;;
75912;SDS011;64592;52.168;21.040;2023-04-30T02:39:57;20.15;;;13.30;;
75912;SDS011;64592;52.168;21.040;2023-04-30T02:45:00;17.95;;;12.73;;
75912;SDS011;64592;52.168;21.040;2023-04-30T02:50:02;20.33;;;13.00;;
75912;SDS011;64592;52.168;21.040;2023-04-30T02:55:04;19.77;;;12.55;;
75912;SDS011;64592;52.168;21.040;2023-04-30T03:00:09;20.33;;;12.32;;
75912;SDS011;64592;52.168;21.040;2023-04-30T03:05:11;18.33;;;11.88;;
75912;SDS011;64592;52.168;21.040;2023-04-30T03:10:14;19.02;;;12.38;;
75912;SDS011;64592;52.168;21.040;2023-04-30T03:15:19;24.65;;;15.00;;
75912;SDS011;64592;52.168;21.040;2023-04-30T03:20:21;23.25;;;15.23;;
75912;SDS011;64592;52.168;21.040;2023-04-30T03:25:23;18.00;;;12.73;;
75912;SDS011;64592;52.168;21.040;2023-04-30T03:30:26;19.25;;;11.98;;
75912;SDS011;64592;52.168;21.040;2023-04-30T03:35:27;19.52;;;11.10;;
75912;SDS011;64592;52.168;21.040;2023-04-30T03:40:29;18.33;;;12.13;;
75912;SDS011;64592;52.168;21.040;2023-04-30T03:45:32;15.27;;;11.18;;
75912;SDS011;64592;52.168;21.040;2023-04-30T03:50:34;17.63;;;12.13;;
75912;SDS011;64592;52.168;21.040;2023-04-30T03:55:35;18.80;;;11.95;;
75912;SDS011;64592;52.168;21.040;2023-04-30T04:00:40;19.33;;;13.63;;
75912;SDS011;64592;52.168;21.040;2023-04-30T04:05:42;18.00;;;10.50;;
75912;SDS011;64592;52.168;21.040;2023-04-30T04:10:43;14.07;;;9.23;;
75912;SDS011;64592;52.168;21.040;2023-04-30T04:15:46;10.98;;;7.20;;
75912;SDS011;64592;52.168;21.040;2023-04-30T04:20:48;11.98;;;6.28;;
75912;SDS011;64592;52.168;21.040;2023-04-30T04:25:50;8.90;;;6.40;;
75912;SDS011;64592;52.168;21.040;2023-04-30T04:30:53;10.45;;;6.22;;
75912;SDS011;64592;52.168;21.040;2023-04-30T04:35:55;10.10;;;6.22;;
75912;SDS011;64592;52.168;21.040;2023-04-30T04:40:57;10.45;;;5.28;;
75912;SDS011;64592;52.168;21.040;2023-04-30T04:46:00;9.70;;;5.10;;
75912;SDS011;64592;52.168;21.040;2023-04-30T04:51:02;9.75;;;5.70;;
75912;SDS011;64592;52.168;21.040;2023-04-30T04:56:04;8.77;;;5.25;;
75912;SDS011;64592;52.168;21.040;2023-04-30T05:01:08;9.20;;;5.90;;
75912;SDS011;64592;52.168;21.040;2023-04-30T05:06:09;9.90;;;6.57;;
75912;SDS011;64592;52.168;21.040;2023-04-30T05:11:11;9.27;;;5.65;;
75912;SDS011;64592;52.168;21.040;2023-04-30T05:16:14;11.05;;;6.20;;
75912;SDS011;64592;52.168;21.040;2023-04-30T05:21:16;10.43;;;5.80;;
75912;SDS011;64592;52.168;21.040;2023-04-30T05:26:18;10.82;;;6.95;;
75912;SDS011;64592;52.168;21.040;2023-04-30T05:31:21;12.30;;;6.45;;
75912;SDS011;64592;52.168;21.040;2023-04-30T05:36:22;14.70;;;7.03;;
75912;SDS011;64592;52.168;21.040;2023-04-30T05:41:24;10.80;;;6.35;;
75912;SDS011;64592;52.168;21.040;2023-04-30T05:46:27;12.45;;;8.32;;
75912;SDS011;64592;52.168;21.040;2023-04-30T05:51:29;14.52;;;8.63;;
75912;SDS011;64592;52.168;21.040;2023-04-30T05:56:31;13.50;;;8.40;;
75912;SDS011;64592;52.168;21.040;2023-04-30T06:01:34;16.48;;;8.30;;
75912;SDS011;64592;52.168;21.040;2023-04-30T06:06:36;13.57;;;8.70;;
75912;SDS011;64592;52.168;21.040;2023-04-30T06:11:37;14.43;;;8.13;;
75912;SDS011;64592;52.168;21.040;2023-04-30T06:16:40;11.25;;;7.80;;
75912;SDS011;64592;52.168;21.040;2023-04-30T06:21:43;12.95;;;9.18;;
75912;SDS011;64592;52.168;21.040;2023-04-30T06:26:45;13.75;;;8.95;;
75912;SDS011;64592;52.168;21.040;2023-04-30T06:31:48;12.18;;;8.23;;
75912;SDS011;64592;52.168;21.040;2023-04-30T06:36:49;15.88;;;9.07;;
75912;SDS011;64592;52.168;21.040;2023-04-30T06:41:51;13.82;;;7.38;;
75912;SDS011;64592;52.168;21.040;2023-04-30T06:46:54;11.95;;;7.78;;
75912;SDS011;64592;52.168;21.040;2023-04-30T06:51:56;11.70;;;7.32;;
75912;SDS011;64592;52.168;21.040;2023-04-30T06:56:58;11.50;;;7.03;;
75912;SDS011;64592;52.168;21.040;2023-04-30T07:02:02;8.57;;;5.80;;
75912;SDS011;64592;52.168;21.040;2023-04-30T07:07:03;15.07;;;9.48;;
75912;SDS011;64592;52.168;21.040;2023-04-30T07:12:05;15.77;;;9.10;;
75912;SDS011;64592;52.168;21.040;2023-04-30T07:17:08;10.65;;;7.95;;
75912;SDS011;64592;52.168;21.040;2023-04-30T07:22:10;12.07;;;6.63;;
75912;SDS011;64592;52.168;21.040;2023-04-30T07:27:11;9.18;;;5.95;;
75912;SDS011;64592;52.168;21.040;2023-04-30T07:32:15;10.95;;;4.60;;
75912;SDS011;64592;52.168;21.040;2023-04-30T07:37:16;10.05;;;6.28;;
75912;SDS011;64592;52.168;21.040;2023-04-30T07:42:18;8.77;;;5.20;;
75912;SDS011;64592;52.168;21.040;2023-04-30T07:47:21;8.73;;;4.15;;
75912;SDS011;64592;52.168;21.040;2023-04-30T07:52:23;9.07;;;3.92;;
75912;SDS011;64592;52.168;21.040;2023-04-30T07:57:24;8.70;;;4.28;;
75912;SDS011;64592;52.168;21.040;2023-04-30T08:02:28;8.05;;;3.65;;
75912;SDS011;64592;52.168;21.040;2023-04-30T08:07:29;6.88;;;4.20;;
75912;SDS011;64592;52.168;21.040;2023-04-30T08:12:31;8.85;;;4.18;;
75912;SDS011;64592;52.168;21.040;2023-04-30T08:17:37;6.68;;;3.20;;
75912;SDS011;64592;52.168;21.040;2023-04-30T08:22:39;9.18;;;3.53;;
75912;SDS011;64592;52.168;21.040;2023-04-30T08:27:41;7.93;;;3.65;;
75912;SDS011;64592;52.168;21.040;2023-04-30T08:32:44;6.63;;;3.80;;
75912;SDS011;64592;52.168;21.040;2023-04-30T08:37:45;6.97;;;4.47;;
75912;SDS011;64592;52.168;21.040;2023-04-30T08:42:49;7.45;;;3.85;;
75912;SDS011;64592;52.168;21.040;2023-04-30T08:48:02;6.07;;;3.28;;
75912;SDS011;64592;52.168;21.040;2023-04-30T08:53:10;5.63;;;3.22;;
75912;SDS011;64592;52.168;21.040;2023-04-30T08:58:14;5.13;;;2.80;;
75912;SDS011;64592;52.168;21.040;2023-04-30T09:03:17;9.15;;;2.78;;
75912;SDS011;64592;52.168;21.040;2023-04-30T09:13:41;6.97;;;2.53;;
75912;SDS011;64592;52.168;21.040;2023-04-30T09:18:44;3.97;;;2.70;;
75912;SDS011;64592;52.168;21.040;2023-04-30T09:23:55;13.00;;;3.67;;
75912;SDS011;64592;52.168;21.040;2023-04-30T09:28:58;5.03;;;2.53;;
75912;SDS011;64592;52.168;21.040;2023-04-30T09:34:02;4.53;;;2.63;;
75912;SDS011;64592;52.168;21.040;2023-04-30T09:39:06;5.03;;;2.33;;
75912;SDS011;64592;52.168;21.040;2023-04-30T09:44:25;4.72;;;2.78;;
75912;SDS011;64592;52.168;21.040;2023-04-30T09:49:28;5.13;;;2.65;;
75912;SDS011;64592;52.168;21.040;2023-04-30T09:54:31;5.72;;;2.58;;
75912;SDS011;64592;52.168;21.040;2023-04-30T09:59:33;5.50;;;2.20;;
75912;SDS011;64592;52.168;21.040;2023-04-30T10:04:38;6.50;;;3.67;;
75912;SDS011;64592;52.168;21.040;2023-04-30T10:09:47;9.05;;;2.58;;
75912;SDS011;64592;52.168;21.040;2023-04-30T10:14:50;3.63;;;2.70;;
75912;SDS011;64592;52.168;21.040;2023-04-30T10:19:57;8.15;;;2.58;;
75912;SDS011;64592;52.168;21.040;2023-04-30T10:25:05;8.63;;;2.80;;
75912;SDS011;64592;52.168;21.040;2023-04-30T10:30:10;6.13;;;2.42;;
75912;SDS011;64592;52.168;21.040;2023-04-30T10:35:15;5.30;;;2.28;;
75912;SDS011;64592;52.168;21.040;2023-04-30T10:40:21;9.00;;;2.83;;
75912;SDS011;64592;52.168;21.040;2023-04-30T10:45:33;4.15;;;1.90;;
75912;SDS011;64592;52.168;21.040;2023-04-30T10:50:40;3.45;;;1.90;;
75912;SDS011;64592;52.168;21.040;2023-04-30T10:55:44;3.05;;;1.90;;
75912;SDS011;64592;52.168;21.040;2023-04-30T11:00:49;5.82;;;1.95;;
75912;SDS011;64592;52.168;21.040;2023-04-30T11:05:53;7.47;;;2.78;;
75912;SDS011;64592;52.168;21.040;2023-04-30T11:10:58;5.20;;;1.70;;
75912;SDS011;64592;52.168;21.040;2023-04-30T11:16:01;4.88;;;2.13;;
75912;SDS011;64592;52.168;21.040;2023-04-30T11:21:04;4.57;;;2.00;;
75912;SDS011;64592;52.168;21.040;2023-04-30T11:26:09;3.17;;;1.70;;
75912;SDS011;64592;52.168;21.040;2023-04-30T11:31:11;5.25;;;2.25;;
75912;SDS011;64592;52.168;21.040;2023-04-30T11:36:14;4.20;;;2.03;;
75912;SDS011;64592;52.168;21.040;2023-04-30T11:41:16;3.50;;;1.92;;
75912;SDS011;64592;52.168;21.040;2023-04-30T11:46:22;6.57;;;2.33;;
75912;SDS011;64592;52.168;21.040;2023-04-30T11:51:25;4.18;;;2.20;;
75912;SDS011;64592;52.168;21.040;2023-04-30T11:56:26;5.78;;;1.98;;
75912;SDS011;64592;52.168;21.040;2023-04-30T12:01:28;6.63;;;1.60;;
75912;SDS011;64592;52.168;21.040;2023-04-30T12:06:32;5.50;;;1.92;;
75912;SDS011;64592;52.168;21.040;2023-04-30T12:11:36;4.05;;;1.80;;
75912;SDS011;64592;52.168;21.040;2023-04-30T12:16:39;3.88;;;2.00;;
75912;SDS011;64592;52.168;21.040;2023-04-30T12:21:44;4.25;;;2.17;;
75912;SDS011;64592;52.168;21.040;2023-04-30T12:26:47;5.05;;;1.98;;
75912;SDS011;64592;52.168;21.040;2023-04-30T12:31:49;7.32;;;2.03;;
75912;SDS011;64592;52.168;21.040;2023-04-30T12:36:52;4.65;;;2.00;;
75912;SDS011;64592;52.168;21.040;2023-04-30T12:41:59;6.38;;;2.40;;
75912;SDS011;64592;52.168;21.040;2023-04-30T12:47:05;5.15;;;2.17;;
75912;SDS011;64592;52.168;21.040;2023-04-30T12:52:10;4.57;;;2.10;;
75912;SDS011;64592;52.168;21.040;2023-04-30T12:57:14;2.53;;;1.77;;
75912;SDS011;64592;52.168;21.040;2023-04-30T13:02:16;3.90;;;1.60;;
75912;SDS011;64592;52.168;21.040;2023-04-30T13:07:19;2.60;;;1.65;;
75912;SDS011;64592;52.168;21.040;2023-04-30T13:12:21;4.60;;;1.92;;
75912;SDS011;64592;52.168;21.040;2023-04-30T13:17:23;3.38;;;2.03;;
75912;SDS011;64592;52.168;21.040;2023-04-30T13:22:27;4.70;;;1.90;;
75912;SDS011;64592;52.168;21.040;2023-04-30T13:27:29;5.15;;;2.15;;
75912;SDS011;64592;52.168;21.040;2023-04-30T13:32:31;4.07;;;1.77;;
75912;SDS011;64592;52.168;21.040;2023-04-30T13:37:34;4.15;;;1.70;;
75912;SDS011;64592;52.168;21.040;2023-04-30T13:42:36;3.25;;;2.00;;
75912;SDS011;64592;52.168;21.040;2023-04-30T13:47:38;2.75;;;1.73;;
75912;SDS011;64592;52.168;21.040;2023-04-30T13:52:41;3.05;;;1.90;;
75912;SDS011;64592;52.168;21.040;2023-04-30T13:57:43;6.38;;;2.08;;
75912;SDS011;64592;52.168;21.040;2023-04-30T14:02:44;2.70;;;1.83;;
75912;SDS011;64592;52.168;21.040;2023-04-30T14:07:47;3.85;;;1.95;;
75912;SDS011;64592;52.168;21.040;2023-04-30T14:12:49;6.50;;;2.08;;
75912;SDS011;64592;52.168;21.040;2023-04-30T14:17:50;4.57;;;1.98;;
75912;SDS011;64592;52.168;21.040;2023-04-30T14:22:54;5.03;;;1.63;;
75912;SDS011;64592;52.168;21.040;2023-04-30T14:27:56;4.68;;;1.50;;
75912;SDS011;64592;52.168;21.040;2023-04-30T14:32:57;5.05;;;1.80;;
75912;SDS011;64592;52.168;21.040;2023-04-30T14:38:00;6.10;;;1.90;;
75912;SDS011;64592;52.168;21.040;2023-04-30T14:43:02;3.90;;;1.60;;
75912;SDS011;64592;52.168;21.040;2023-04-30T14:48:04;3.03;;;1.50;;
75912;SDS011;64592;52.168;21.040;2023-04-30T14:53:07;3.50;;;2.00;;
75912;SDS011;64592;52.168;21.040;2023-04-30T14:58:10;3.47;;;1.50;;
75912;SDS011;64592;52.168;21.040;2023-04-30T15:03:12;3.75;;;1.60;;
75912;SDS011;64592;52.168;21.040;2023-04-30T15:08:15;3.80;;;1.73;;
75912;SDS011;64592;52.168;21.040;2023-04-30T15:13:16;3.65;;;2.03;;
75912;SDS011;64592;52.168;21.040;2023-04-30T15:18:18;3.28;;;1.77;;
75912;SDS011;64592;52.168;21.040;2023-04-30T15:23:21;3.65;;;1.90;;
75912;SDS011;64592;52.168;21.040;2023-04-30T15:28:23;2.85;;;1.70;;
75912;SDS011;64592;52.168;21.040;2023-04-30T15:33:24;5.43;;;1.98;;
75912;SDS011;64592;52.168;21.040;2023-04-30T15:38:29;2.83;;;1.52;;
75912;SDS011;64592;52.168;21.040;2023-04-30T15:43:30;7.18;;;2.00;;
75912;SDS011;64592;52.168;21.040;2023-04-30T15:48:32;3.25;;;1.45;;
75912;SDS011;64592;52.168;21.040;2023-04-30T15:53:35;7.78;;;1.95;;
75912;SDS011;64592;52.168;21.040;2023-04-30T15:58:37;3.50;;;1.50;;
75912;SDS011;64592;52.168;21.040;2023-04-30T16:03:39;2.90;;;1.40;;
75912;SDS011;64592;52.168;21.040;2023-04-30T16:08:42;3.42;;;1.83;;
75912;SDS011;64592;52.168;21.040;2023-04-30T16:13:45;3.25;;;1.33;;
75912;SDS011;64592;52.168;21.040;2023-04-30T16:18:47;3.70;;;2.00;;
75912;SDS011;64592;52.168;21.040;2023-04-30T16:23:51;5.90;;;2.00;;
75912;SDS011;64592;52.168;21.040;2023-04-30T16:28:53;4.22;;;1.58;;
75912;SDS011;64592;52.168;21.040;2023-04-30T16:33:54;3.78;;;1.80;;
75912;SDS011;64592;52.168;21.040;2023-04-30T16:38:57;5.15;;;2.28;;
75912;SDS011;64592;52.168;21.040;2023-04-30T16:43:59;5.40;;;1.90;;
75912;SDS011;64592;52.168;21.040;2023-04-30T16:49:01;5.50;;;1.80;;
75912;SDS011;64592;52.168;21.040;2023-04-30T16:54:05;3.67;;;1.70;;
75912;SDS011;64592;52.168;21.040;2023-04-30T16:59:07;4.55;;;1.58;;
75912;SDS011;64592;52.168;21.040;2023-04-30T17:04:09;3.85;;;1.70;;
75912;SDS011;64592;52.168;21.040;2023-04-30T17:09:12;7.43;;;1.75;;
75912;SDS011;64592;52.168;21.040;2023-04-30T17:14:14;6.57;;;1.90;;
75912;SDS011;64592;52.168;21.040;2023-04-30T17:19:16;4.30;;;1.63;;
75912;SDS011;64592;52.168;21.040;2023-04-30T17:24:19;3.60;;;1.63;;
75912;SDS011;64592;52.168;21.040;2023-04-30T17:29:21;7.75;;;2.30;;
75912;SDS011;64592;52.168;21.040;2023-04-30T17:34:23;3.80;;;1.77;;
75912;SDS011;64592;52.168;21.040;2023-04-30T17:39:27;5.30;;;1.83;;
75912;SDS011;64592;52.168;21.040;2023-04-30T17:44:31;2.83;;;1.60;;
75912;SDS011;64592;52.168;21.040;2023-04-30T17:49:33;3.03;;;1.83;;
75912;SDS011;64592;52.168;21.040;2023-04-30T17:54:36;5.22;;;2.30;;
75912;SDS011;64592;52.168;21.040;2023-04-30T17:59:37;4.70;;;2.03;;
75912;SDS011;64592;52.168;21.040;2023-04-30T18:04:39;3.20;;;1.88;;
75912;SDS011;64592;52.168;21.040;2023-04-30T18:09:43;4.38;;;1.90;;
75912;SDS011;64592;52.168;21.040;2023-04-30T18:14:46;5.55;;;2.47;;
75912;SDS011;64592;52.168;21.040;2023-04-30T18:19:48;4.43;;;1.85;;
75912;SDS011;64592;52.168;21.040;2023-04-30T18:24:50;3.80;;;2.13;;
75912;SDS011;64592;52.168;21.040;2023-04-30T18:29:54;3.80;;;1.90;;
75912;SDS011;64592;52.168;21.040;2023-04-30T18:34:56;6.25;;;2.88;;
75912;SDS011;64592;52.168;21.040;2023-04-30T18:39:59;4.07;;;2.15;;
75912;SDS011;64592;52.168;21.040;2023-04-30T18:45:00;5.25;;;2.42;;
75912;SDS011;64592;52.168;21.040;2023-04-30T18:50:04;4.10;;;2.00;;
75912;SDS011;64592;52.168;21.040;2023-04-30T18:55:10;7.00;;;2.65;;
75912;SDS011;64592;52.168;21.040;2023-04-30T19:00:13;5.55;;;2.22;;
75912;SDS011;64592;52.168;21.040;2023-04-30T19:05:15;6.90;;;2.08;;
75912;SDS011;64592;52.168;21.040;2023-04-30T19:10:18;5.15;;;2.63;;
75912;SDS011;64592;52.168;21.040;2023-04-30T19:15:20;5.30;;;2.38;;
75912;SDS011;64592;52.168;21.040;2023-04-30T19:20:23;4.43;;;2.33;;
75912;SDS011;64592;52.168;21.040;2023-04-30T19:25:26;4.20;;;2.60;;
75912;SDS011;64592;52.168;21.040;2023-04-30T19:30:28;7.05;;;2.50;;
75912;SDS011;64592;52.168;21.040;2023-04-30T19:35:30;8.00;;;2.30;;
75912;SDS011;64592;52.168;21.040;2023-04-30T19:40:33;10.00;;;2.60;;
75912;SDS011;64592;52.168;21.040;2023-04-30T19:45:35;6.43;;;2.50;;
75912;SDS011;64592;52.168;21.040;2023-04-30T19:50:38;4.93;;;2.47;;
75912;SDS011;64592;52.168;21.040;2023-04-30T19:55:42;6.72;;;2.35;;
75912;SDS011;64592;52.168;21.040;2023-04-30T20:00:44;4.05;;;2.30;;
75912;SDS011;64592;52.168;21.040;2023-04-30T20:05:46;6.45;;;3.10;;
75912;SDS011;64592;52.168;21.040;2023-04-30T20:10:49;6.43;;;3.00;;
75912;SDS011;64592;52.168;21.040;2023-04-30T20:15:51;6.22;;;2.80;;
75912;SDS011;64592;52.168;21.040;2023-04-30T20:20:54;4.38;;;2.30;;
75912;SDS011;64592;52.168;21.040;2023-04-30T20:25:58;6.93;;;3.13;;
75912;SDS011;64592;52.168;21.040;2023-04-30T20:31:00;6.57;;;2.78;;
75912;SDS011;64592;52.168;21.040;2023-04-30T20:36:02;5.50;;;3.10;;
75912;SDS011;64592;52.168;21.040;2023-04-30T20:41:05;6.68;;;2.63;;
75912;SDS011;64592;52.168;21.040;2023-04-30T20:46:06;10.23;;;3.30;;
75912;SDS011;64592;52.168;21.040;2023-04-30T20:51:08;5.03;;;2.78;;
75912;SDS011;64592;52.168;21.040;2023-04-30T20:56:11;7.60;;;2.88;;
75912;SDS011;64592;52.168;21.040;2023-04-30T21:01:13;8.00;;;3.13;;
75912;SDS011;64592;52.168;21.040;2023-04-30T21:06:15;7.28;;;3.15;;
75912;SDS011;64592;52.168;21.040;2023-04-30T21:11:18;7.43;;;3.10;;
75912;SDS011;64592;52.168;21.040;2023-04-30T21:16:20;9.30;;;5.15;;
75912;SDS011;64592;52.168;21.040;2023-04-30T21:21:22;8.07;;;3.28;;
75912;SDS011;64592;52.168;21.040;2023-04-30T21:26:25;5.95;;;3.55;;
75912;SDS011;64592;52.168;21.040;2023-04-30T21:31:26;7.72;;;3.28;;
75912;SDS011;64592;52.168;21.040;2023-04-30T21:36:28;6.65;;;3.28;;
75912;SDS011;64592;52.168;21.040;2023-04-30T21:41:31;8.05;;;3.00;;
75912;SDS011;64592;52.168;21.040;2023-04-30T21:46:33;8.05;;;3.33;;
75912;SDS011;64592;52.168;21.040;2023-04-30T21:51:35;6.45;;;3.10;;
75912;SDS011;64592;52.168;21.040;2023-04-30T21:56:39;8.68;;;4.25;;
75912;SDS011;64592;52.168;21.040;2023-04-30T22:01:41;8.13;;;3.97;;
75912;SDS011;64592;52.168;21.040;2023-04-30T22:06:42;6.70;;;3.83;;
75912;SDS011;64592;52.168;21.040;2023-04-30T22:11:46;8.10;;;3.35;;
75912;SDS011;64592;52.168;21.040;2023-04-30T22:16:48;6.72;;;3.42;;
75912;SDS011;64592;52.168;21.040;2023-04-30T22:21:50;8.77;;;3.97;;
75912;SDS011;64592;52.168;21.040;2023-04-30T22:26:53;9.20;;;5.35;;
75912;SDS011;64592;52.168;21.040;2023-04-30T22:31:55;9.43;;;3.90;;
75912;SDS011;64592;52.168;21.040;2023-04-30T22:36:57;10.68;;;4.00;;
75912;SDS011;64592;52.168;21.040;2023-04-30T22:42:00;7.53;;;4.15;;
75912;SDS011;64592;52.168;21.040;2023-04-30T22:47:02;11.15;;;4.95;;
75912;SDS011;64592;52.168;21.040;2023-04-30T22:52:04;14.15;;;4.60;;
75912;SDS011;64592;52.168;21.040;2023-04-30T22:57:08;9.50;;;4.53;;
75912;SDS011;64592;52.168;21.040;2023-04-30T23:02:10;11.25;;;5.38;;
75912;SDS011;64592;52.168;21.040;2023-04-30T23:07:11;9.82;;;4.32;;
75912;SDS011;64592;52.168;21.040;2023-04-30T23:12:15;8.27;;;4.75;;
75912;SDS011;64592;52.168;21.040;2023-04-30T23:17:16;8.40;;;5.13;;
75912;SDS011;64592;52.168;21.040;2023-04-30T23:22:18;14.13;;;5.22;;
75912;SDS011;64592;52.168;21.040;2023-04-30T23:27:21;12.50;;;5.25;;
75912;SDS011;64592;52.168;21.040;2023-04-30T23:32:23;12.88;;;5.18;;
75912;SDS011;64592;52.168;21.040;2023-04-30T23:37:25;14.25;;;6.82;;
75912;SDS011;64592;52.168;21.040;2023-04-30T23:42:28;11.65;;;5.70;;
75912;SDS011;64592;52.168;21.040;2023-04-30T23:47:29;9.57;;;5.28;;
75912;SDS011;64592;52.168;21.040;2023-04-30T23:52:31;14.25;;;5.65;;
75912;SDS011;64592;52.168;21.040;2023-04-30T23:57:35;14.48;;;5.38;;
